Latest Weather Observations for Bellambi

IDN60801

Issued at 11:03 pm EST Sunday 24 May 2015 (issued every 30 minutes, with the page automatically refreshed every 10 minutes)

About weather observations | Map of weather stations | Latest weather observations for NSW | Other Formats
Station Details ID: 068228 Name: BELLAMBI AWS Lat: -34.37 Lon: 150.93 Height: 10.0 m
Data from the previous 72 hours. | See also: Recent months at Bellambi
Date/Time
EST
Temp
°C
App
Temp
°C
Dew
Point
Rel
Hum
%
Delta-T
°C
Wind Press
QNH
hPa
Press
MSL
hPa
Rain
since 9 am
mm
Dir
 
Spd
km/h
Gust
km/h
Spd
kts
Gust
kts
24/11:00pm 12.5 8.6 7.2 70 2.6 WNW 17 20 9 11 - - 0.0
24/10:30pm 13.3 10.0 8.0 70 2.6 WNW 15 19 8 10 - - 0.0
24/10:00pm 12.8 10.6 7.9 72 2.4 NW 9 13 5 7 - - 0.0
24/09:30pm 12.7 10.8 7.6 71 2.5 NW 7 9 4 5 - - 0.0
24/09:00pm 12.4 10.0 7.1 70 2.6 NW 9 11 5 6 - - 0.0
24/08:30pm 11.6 9.4 6.3 70 2.5 WNW 7 9 4 5 - - 0.0
24/08:00pm 12.6 10.1 6.4 66 2.9 NW 9 11 5 6 - - 0.0
24/07:30pm 12.5 9.9 5.9 64 3.1 WNW 9 9 5 5 - - 0.0
24/07:00pm 12.8 10.2 5.9 63 3.2 WNW 9 9 5 5 - - 0.0
24/06:30pm 12.8 10.6 6.2 64 3.1 WNW 7 11 4 6 - - 0.0
24/06:00pm 13.2 11.0 6.1 62 3.4 WNW 7 9 4 5 - - 0.0
24/05:30pm 13.8 11.3 6.4 61 3.5 WNW 9 11 5 6 - - 0.0
24/05:00pm 14.5 12.4 6.8 60 3.7 WNW 7 9 4 5 - - 0.0
24/04:30pm 16.6 14.6 7.0 53 4.8 NNE 7 11 4 6 - - 0.0
24/04:00pm 17.2 14.7 4.5 43 6.0 NE 7 9 4 5 - - 0.0
24/03:30pm 17.4 14.8 4.4 42 6.1 ENE 7 11 4 6 - - 0.0
24/03:00pm 17.3 15.2 5.9 47 5.6 E 6 9 3 5 - - 0.0
24/02:30pm 17.2 14.9 5.8 47 5.5 ESE 7 9 4 5 - - 0.0
24/02:00pm 17.4 16.0 7.2 51 5.1 SE 4 9 2 5 - - 0.0
24/01:30pm 17.2 15.1 6.7 50 5.2 SE 7 11 4 6 - - 0.0
24/01:00pm 17.1 15.0 6.6 50 5.2 SE 7 11 4 6 - - 0.0
24/12:30pm 17.2 15.4 7.8 54 4.8 S 7 11 4 6 - - 0.0
24/12:00pm 17.1 14.6 8.3 56 4.5 S 11 17 6 9 - - 0.0
24/11:30am 16.7 13.7 7.9 56 4.4 S 13 19 7 10 - - 0.0
24/11:00am 16.4 12.7 8.1 58 4.2 S 17 20 9 11 - - 0.0
24/10:30am 16.4 13.2 8.6 60 4.0 SSW 15 19 8 10 - - 0.0
24/10:00am 16.2 13.3 8.2 59 4.0 SSW 13 19 7 10 - - 0.0
24/09:30am 15.7 13.0 9.1 65 3.4 SSW 13 17 7 9 - - 0.0
24/09:00am 14.2 12.1 8.2 67 3.0 WSW 9 13 5 7 - - 0.0
24/08:30am 12.7 10.1 7.6 71 2.5 WSW 11 13 6 7 - - 0.0
24/08:00am 11.9 9.1 7.0 72 2.3 W 11 13 6 7 - - 0.0
24/07:30am 11.5 8.7 6.8 73 2.2 W 11 13 6 7 - - 0.0
24/07:00am 11.2 8.3 6.5 73 2.2 W 11 13 6 7 - - 0.0
24/06:30am 11.3 8.1 6.8 74 2.1 WNW 13 17 7 9 - - 0.0
24/05:30am 10.7 6.7 6.6 76 1.9 WNW 17 20 9 11 - - 0.0
24/05:00am 10.4 7.5 6.5 77 1.8 WNW 11 13 6 7 - - 0.0
24/04:30am 10.7 7.9 6.8 77 1.8 W 11 13 6 7 - - 0.0
24/04:00am 11.1 7.9 7.0 76 2.0 W 13 15 7 8 - - 0.0
24/03:30am 11.7 8.2 7.4 75 2.1 W 15 17 8 9 - - 0.0
24/03:00am 11.2 7.6 6.9 75 2.0 WSW 15 17 8 9 - - 0.0
24/02:30am 11.3 8.1 6.8 74 2.1 W 13 15 7 8 - - 0.0
24/02:00am 11.5 8.0 7.0 74 2.1 WSW 15 17 8 9 - - 0.0
24/01:30am 11.2 8.0 6.9 75 2.0 W 13 15 7 8 - - 0.0
24/01:00am 11.4 8.2 6.9 74 2.1 W 13 15 7 8 - - 0.0
24/12:30am 11.3 8.1 6.8 74 2.1 W 13 15 7 8 - - 0.0
24/12:00am 11.3 7.7 6.8 74 2.1 W 15 17 8 9 - - 0.0
 
Date/Time
EST
Temp
°C
App
Temp
°C
Dew
Point
Rel
Hum
%
Delta-T
°C
Wind Press
QNH
hPa
Press
MSL
hPa
Rain
since 9 am
mm
Dir
 
Spd
km/h
Gust
km/h
Spd
kts
Gust
kts
23/11:30pm 11.4 8.5 6.7 73 2.2 W 11 13 6 7 - - 0.0
23/11:00pm 11.9 8.8 7.2 73 2.3 W 13 15 7 8 - - 0.0
23/10:30pm 11.7 8.5 6.8 72 2.3 W 13 13 7 7 - - 0.0
23/10:00pm 11.6 8.7 6.7 72 2.3 W 11 13 6 7 - - 0.0
23/09:30pm 12.0 8.9 7.1 72 2.4 W 13 15 7 8 - - 0.0
23/09:00pm 11.8 8.3 7.3 74 2.2 WSW 15 17 8 9 - - 0.0
23/08:30pm 11.6 8.8 6.9 73 2.2 W 11 13 6 7 - - 0.0
23/08:00pm 11.8 8.7 7.1 73 2.3 WSW 13 17 7 9 - - 0.0
23/07:30pm 12.1 8.6 7.4 73 2.3 WSW 15 19 8 10 - - 0.0
23/07:00pm 12.3 8.9 7.6 73 2.3 WSW 15 19 8 10 - - 0.0
23/06:30pm 12.6 9.2 7.7 72 2.4 WSW 15 19 8 10 - - 0.0
23/06:00pm 12.7 9.3 7.6 71 2.5 WSW 15 19 8 10 - - 0.0
23/05:30pm 13.1 9.7 7.5 69 2.7 WSW 15 17 8 9 - - 0.0
23/05:00pm 15.4 11.6 8.9 65 3.3 S 19 26 10 14 - - 0.0
23/04:30pm 15.5 11.5 8.3 62 3.6 S 19 24 10 13 - - 0.0
23/04:00pm 15.9 12.0 7.1 56 4.3 S 17 20 9 11 - - 0.0
23/03:30pm 16.0 11.7 7.7 58 4.2 SSE 20 28 11 15 - - 0.0
23/03:00pm 16.1 11.0 7.8 58 4.2 S 24 30 13 16 - - 0.0
23/02:30pm 16.2 11.0 7.4 56 4.4 S 24 30 13 16 - - 0.0
23/02:00pm 16.5 11.9 8.2 58 4.2 SSW 22 30 12 16 - - 0.0
23/01:30pm 17.2 13.2 9.1 59 4.2 SSW 20 33 11 18 - - 0.0
23/01:00pm 16.4 11.7 7.6 56 4.4 SSW 22 32 12 17 - - 0.0
23/12:30pm 16.6 12.3 7.8 56 4.4 SW 20 28 11 15 - - 0.0
23/12:00pm 16.6 11.3 8.6 59 4.1 SSW 26 33 14 18 - - 0.0
23/11:30am 16.0 10.1 7.7 58 4.2 SW 28 37 15 20 - - 0.0
23/11:00am 16.1 10.8 8.3 60 4.0 SW 26 33 14 18 - - 0.0
23/10:30am 15.7 10.4 8.4 62 3.7 SSW 26 32 14 17 - - 0.0
23/10:00am 15.2 10.1 7.7 61 3.7 SW 24 33 13 18 - - 0.0
23/09:30am 14.9 10.1 7.2 60 3.8 SW 22 32 12 17 - - 0.0
23/09:00am 14.3 10.0 6.9 61 3.6 SW 19 28 10 15 - - 17.6
23/08:30am 13.9 9.0 6.7 62 3.5 SW 22 32 12 17 - - 17.6
23/08:00am 13.1 8.5 6.7 65 3.1 SW 20 30 11 16 - - 17.6
23/07:30am 12.3 7.8 6.1 66 2.9 SW 19 28 10 15 - - 17.6
23/07:00am 12.1 7.4 6.2 67 2.8 SW 20 30 11 16 - - 17.6
23/06:30am 12.3 7.7 6.6 68 2.7 SW 20 26 11 14 - - 17.6
23/06:00am 12.3 7.7 6.6 68 2.7 SW 20 30 11 16 - - 17.6
23/05:30am 12.3 7.4 6.8 69 2.6 SW 22 30 12 16 - - 17.6
23/05:00am 12.3 7.3 6.6 68 2.7 SW 22 35 12 19 - - 17.6
23/04:30am 12.2 6.9 6.9 70 2.5 SW 24 32 13 17 - - 17.6
23/04:00am 12.2 7.4 7.3 72 2.4 SW 22 30 12 16 - - 17.6
23/03:30am 12.1 7.0 7.8 75 2.1 SW 24 35 13 19 - - 17.6
23/03:00am 12.2 6.8 8.1 76 2.0 SW 26 33 14 18 - - 17.6
23/02:30am 12.3 6.6 8.4 77 1.9 SW 28 37 15 20 - - 17.6
23/02:00am 12.4 7.3 9.2 81 1.6 SW 26 35 14 19 - - 17.6
23/01:30am 12.2 7.6 9.6 84 1.3 SW 24 37 13 20 - - 17.6
23/01:00am 11.8 7.6 9.9 88 1.0 SW 22 32 12 17 - - 17.6
23/12:30am 12.1 7.0 10.7 91 0.7 SW 28 39 15 21 - - 17.6
23/12:00am 12.0 8.1 10.9 93 0.6 SW 22 33 12 18 - - 17.6
 
Date/Time
EST
Temp
°C
App
Temp
°C
Dew
Point
Rel
Hum
%
Delta-T
°C
Wind Press
QNH
hPa
Press
MSL
hPa
Rain
since 9 am
mm
Dir
 
Spd
km/h
Gust
km/h
Spd
kts
Gust
kts
22/11:52pm 12.0 7.7 10.9 93 0.6 SW 24 35 13 19 - - 17.6
22/11:30pm 12.2 7.6 11.1 93 0.6 SW 26 39 14 21 - - 17.2
22/11:29pm 12.2 7.6 11.1 93 0.6 SW 26 39 14 21 - - 17.2
22/11:26pm 12.0 7.7 10.9 93 0.6 SW 24 39 13 21 - - 17.2
22/11:11pm 11.9 7.2 10.6 92 0.7 SW 26 37 14 20 - - 16.4
22/11:05pm 11.9 7.6 10.6 92 0.7 SW 24 37 13 20 - - 16.4
22/11:00pm 11.8 7.4 10.5 92 0.7 SW 24 37 13 20 - - 16.2
22/10:46pm 12.0 7.7 10.7 92 0.7 SW 24 35 13 19 - - 16.0
22/10:30pm 12.1 8.2 10.7 91 0.7 SW 22 30 12 16 - - 16.0
22/10:00pm 12.0 7.6 10.4 90 0.8 SW 24 32 13 17 - - 15.6
22/09:30pm 12.0 8.5 10.2 89 0.9 SW 19 26 10 14 - - 15.0
22/09:00pm 12.0 8.6 10.4 90 0.8 SW 19 28 10 15 - - 15.0
22/08:30pm 12.2 7.9 10.6 90 0.8 SW 24 35 13 19 - - 15.0
22/08:00pm 12.3 7.2 10.5 89 0.9 SW 28 35 15 19 - - 13.8
22/07:30pm 12.9 6.7 11.3 90 0.8 SSW 35 48 19 26 - - 13.6
22/07:00pm 12.5 7.4 10.7 89 0.9 SW 28 37 15 20 - - 11.8
22/06:30pm 12.8 7.7 10.5 86 1.2 SW 28 41 15 22 - - 9.0
22/06:07pm 14.1 6.6 10.7 80 1.8 SSW 41 57 22 31 - - 8.6
22/06:02pm 14.5 9.0 11.8 84 1.5 SW 32 57 17 31 - - 8.6
22/06:00pm 14.0 9.3 11.9 87 1.1 SW 28 54 15 29 - - 8.6
22/05:36pm 13.9 5.0 10.5 80 1.8 S 48 65 26 35 - - 8.6
22/05:30pm 14.4 6.2 11.6 83 1.5 S 46 65 25 35 - - 8.6
22/05:23pm 13.4 4.3 11.1 86 1.2 SSW 50 72 27 39 - - 8.6
22/05:19pm 12.9 3.9 10.1 83 1.4 SSW 48 72 26 39 - - 8.6
22/05:04pm 14.7 7.2 12.2 85 1.4 SSW 43 82 23 44 - - 8.2
22/05:00pm 14.2 7.0 11.9 86 1.2 SSW 41 59 22 32 - - 8.2
22/04:31pm 13.1 4.3 11.0 87 1.1 SSW 48 72 26 39 - - 7.4
22/04:30pm 13.4 5.2 11.6 89 1.0 SSW 46 63 25 34 - - 7.4
22/04:05pm 13.5 5.3 11.7 89 1.0 SSW 46 65 25 35 - - 6.0
22/04:00pm 13.4 4.8 11.6 89 1.0 SSW 48 65 26 35 - - 6.0
22/03:30pm 13.7 5.5 11.6 87 1.1 SSW 46 65 25 35 - - 4.4
22/03:23pm 13.9 6.1 11.1 83 1.5 SSW 43 65 23 35 - - 4.2
22/03:09pm 14.7 5.2 11.1 79 1.9 SSW 52 78 28 42 - - 3.4
22/03:05pm 14.6 3.7 11.0 79 1.9 SSW 59 78 32 42 - - 3.4
22/03:00pm 14.6 3.5 11.7 83 1.6 SSW 61 76 33 41 - - 3.4
22/02:56pm 13.9 4.0 11.1 83 1.5 SSW 54 74 29 40 - - 3.4
22/02:50pm 14.6 6.9 11.6 82 1.6 SSW 43 61 23 33 - - 3.2
22/02:45pm 14.7 6.5 11.8 83 1.6 SSW 46 65 25 35 - - 3.2
22/02:30pm 15.6 4.3 11.0 74 2.5 S 61 80 33 43 - - 3.2
22/02:28pm 15.5 4.4 11.5 77 2.2 S 61 80 33 43 - - 3.2
22/02:00pm 16.3 4.0 9.9 66 3.4 S 65 82 35 44 - - 3.2
22/01:47pm 16.4 6.6 11.6 73 2.6 SSW 54 80 29 43 - - 3.2
22/01:43pm 15.8 7.6 11.6 76 2.3 SSW 46 69 25 37 - - 3.2
22/01:30pm 14.8 7.0 11.2 79 1.9 SSW 43 57 23 31 - - 3.2
22/01:00pm 14.3 6.4 11.5 83 1.5 SSW 44 61 24 33 - - 3.2
22/12:30pm 13.6 4.8 11.1 85 1.3 SW 48 72 26 39 - - 3.2
22/12:26pm 13.8 4.0 11.3 85 1.3 SW 54 72 29 39 - - 3.2
22/12:16pm 14.2 5.2 11.7 85 1.3 SSW 50 69 27 37 - - 3.0
22/12:07pm 14.2 8.2 12.1 87 1.1 SW 35 54 19 29 - - 3.0
22/12:00pm 13.8 8.3 11.7 87 1.1 SW 32 44 17 24 - - 3.0
22/11:30am 13.8 3.4 11.3 85 1.3 SSW 57 85 31 46 - - 2.4
22/11:29am 13.7 2.9 11.2 85 1.3 SSW 59 85 32 46 - - 2.2
22/11:26am 14.2 2.3 11.4 83 1.5 SSW 65 85 35 46 - - 2.0
22/11:00am 14.5 1.6 11.3 81 1.7 SSW 70 91 38 49 - - 1.6
22/10:30am 16.7 5.1 12.3 75 2.4 S 65 83 35 45 - - 1.4
22/10:08am 16.5 5.3 12.3 76 2.3 S 63 82 34 44 - - 1.4
22/10:00am 16.7 5.7 13.0 79 2.1 S 63 80 34 43 - - 1.4
22/09:30am 15.4 4.2 13.6 89 1.0 S 65 78 35 42 - - 1.4
22/09:02am 15.7 8.7 13.7 88 1.1 S 43 69 23 37 - - 0.0
22/09:00am 15.9 9.9 14.4 91 0.9 S 39 59 21 32 - - 13.4
22/08:58am 15.9 10.8 14.8 93 0.6 SSW 35 57 19 31 - - 13.2
22/08:36am 14.3 7.5 11.8 85 1.3 S 39 57 21 31 - - 10.8
22/08:34am 14.8 7.3 12.1 84 1.5 SSE 43 57 23 31 - - 9.2
22/08:30am 16.1 8.8 13.4 84 1.5 SSE 44 57 24 31 - - 7.2
22/08:00am 16.0 9.2 13.1 83 1.6 SSE 41 50 22 27 - - 6.8
22/07:31am 15.5 7.4 13.2 86 1.3 S 48 61 26 33 - - 6.4
22/07:30am 15.7 7.7 13.5 87 1.2 S 48 65 26 35 - - 6.4
22/07:10am 15.2 10.5 14.2 94 0.6 SSW 32 56 17 30 - - 5.4
22/07:00am 13.6 8.0 12.2 91 0.8 SW 33 54 18 29 - - 5.0
22/06:54am 13.6 8.6 12.2 91 0.8 SW 30 54 16 29 - - 4.8
22/06:52am 13.4 8.6 11.8 90 0.9 SW 28 52 15 28 - - 4.8
22/06:30am 13.1 8.2 11.3 89 1.0 SW 28 41 15 22 - - 3.8
22/06:00am 13.7 9.0 10.5 81 1.7 SW 26 37 14 20 - - 0.4
22/05:30am 13.7 9.8 10.7 82 1.6 SW 22 32 12 17 - - 0.4
22/05:00am 13.4 8.0 10.9 85 1.3 SW 30 43 16 23 - - 0.2
22/04:30am 13.1 8.1 10.8 86 1.2 SW 28 37 15 20 - - 0.2
22/04:00am 13.5 8.4 10.5 82 1.6 SW 28 41 15 22 - - 0.0
22/03:30am 14.6 9.4 10.2 75 2.3 SW 28 39 15 21 - - 0.0
22/03:00am 14.3 9.4 10.1 76 2.2 SW 26 41 14 22 - - 0.0
22/02:30am 14.2 9.3 10.0 76 2.2 SW 26 33 14 18 - - 0.0
22/02:00am 14.0 9.0 9.4 74 2.4 SW 26 35 14 19 - - 0.0
22/01:30am 14.1 9.0 9.3 73 2.5 SW 26 35 14 19 - - 0.0
22/01:00am 14.4 9.1 9.8 74 2.4 SW 28 37 15 20 - - 0.0
22/12:30am 14.7 9.5 10.3 75 2.3 SW 28 39 15 21 - - 0.0
22/12:00am 14.9 9.3 10.1 73 2.5 SW 30 43 16 23 - - 0.0
 
Date/Time
EST
Temp
°C
App
Temp
°C
Dew
Point
Rel
Hum
%
Delta-T
°C
Wind Press
QNH
hPa
Press
MSL
hPa
Rain
since 9 am
mm
Dir
 
Spd
km/h
Gust
km/h
Spd
kts
Gust
kts
21/11:30pm 15.1 8.7 10.7 75 2.3 SW 35 50 19 27 - - 0.0

Other Formats:

Comma delimited format used in spreadsheet applications
http://www.bom.gov.au/fwo/IDN60801/IDN60801.94749.axf

JavaScript Object Notation format (JSON) in row-major order
http://www.bom.gov.au/fwo/IDN60801/IDN60801.94749.json